Martinsville, IN (46151)

1:57 PM EDT on August 22, 2017 (GMT -0400)
Martinsville | | Change Station

Elev 820 ft 39.41 °N, 86.43 °W | Updated 6 seconds ago

Mostly Cloudy
Mostly Cloudy
73.6 °F
Feels Like 74 °F
N
4.0
Wind Variable Wind from East
Gusts 6.7 mph

Today
High -- | Low -- °F
--% Chance of Precip.
Yesterday
High -- | Low -- °F
Precip. -- in
Pressure 29.92 in
Visibility 10.0 miles
Clouds Few 2000 ft
Scattered Clouds 11000 ft
Overcast 15000 ft
Heat Index 74 °F
Dew Point 67 °F
Humidity 80%
Rainfall 0.00 in
Snow Depth Not available.
7:05 AM 8:31 PM
New Moon, 1% visible
METAR KIND 221754Z 25014KT 10SM FEW020 SCT110 OVC150 24/20 A2994 RMK AO2 SLP132 60030 T02440200 10244 20211 50003
Pressure 29.92 in
Visibility 10.0 miles
Clouds Few 2000 ft
Scattered Clouds 11000 ft
Overcast 15000 ft
Heat Index 74 °F
Dew Point 67 °F
Humidity 80%
Rainfall 0.00 in
Snow Depth Not available.
7:05 AM 8:31 PM
New Moon, 1% visible
METAR KIND 221754Z 25014KT 10SM FEW020 SCT110 OVC150 24/20 A2994 RMK AO2 SLP132 60030 T02440200 10244 20211 50003

Get Severe Weather Alerts

Thanks for signing up!

Be on the lookout for a verification email in your inbox.

You'll start receiving the daily forecast at 6 AM.

×

10-Day Weather Forecast

Almanac

Astronomy

Aug. 22, 2017 Rise Set
Actual Time
Civil Twilight
Nautical Twilight
Astronomical Twilight
Moon
Length of Visible Light
Length of Day
Tomorrow will be .
, % of the Moon is Illuminated

Today's Extremes

State Highs State Lows

Community

WunderPhotos

Category 6

Welcome to Category 6. This is the collective home for Weather Underground's featured writeups by Dr. Jeff Masters (right), Bob Henson (left), Chris Burt, and other regular contributors.

Nearby

Air Quality

  Air Quality AQ Index Pollutant
Not available.

Snow Depth

Station Depth Elevation

Earthquake Activity

City Distance Mag. Time & Date
Minimum magnitude displayed is 2.5.

Coastal Water Temperatures

Place Temperature

Stations

Nearby Weather Stations

Station Location Temp. Windchill Dew Point Humidity Wind Precip. Elev Updated Type
                   

Watches & Warnings

There are currently no watches in effect.